createdAt,value
2017-08-09T00:00:01.333Z,96.90
2017-08-09T00:02:27.712Z,96.90
2017-08-09T00:04:54.405Z,96.80
2017-08-09T00:07:20.781Z,96.90
2017-08-09T00:09:47.205Z,97.10
2017-08-09T00:12:13.588Z,97.30
2017-08-09T00:14:40.768Z,97.40
2017-08-09T00:17:07.139Z,97.40
2017-08-09T00:19:33.500Z,97.30
2017-08-09T00:22:00.668Z,97.50
2017-08-09T00:24:27.035Z,97.50
2017-08-09T00:26:53.403Z,97.60
2017-08-09T00:29:20.563Z,97.70
2017-08-09T00:31:46.875Z,97.70
2017-08-09T00:34:14.313Z,97.30
2017-08-09T00:36:40.681Z,97.30
2017-08-09T00:39:07.086Z,97.30
2017-08-09T00:41:33.425Z,97.50
2017-08-09T00:43:59.782Z,97.60
2017-08-09T00:46:26.149Z,97.70
2017-08-09T00:48:52.496Z,97.80
2017-08-09T00:51:18.875Z,97.90
2017-08-09T00:53:45.213Z,97.80
2017-08-09T00:56:11.498Z,97.90
2017-08-09T00:58:38.577Z,98.10
2017-08-09T01:01:04.989Z,98.10
2017-08-09T01:03:31.389Z,98.10
2017-08-09T01:05:58.460Z,98.20
2017-08-09T01:08:25.172Z,98.20
2017-08-09T01:10:51.553Z,98.40
2017-08-09T01:13:17.903Z,98.60
2017-08-09T01:15:44.265Z,98.20
2017-08-09T01:18:10.614Z,98.30
2017-08-09T01:20:38.093Z,98.50
2017-08-09T01:23:04.545Z,98.50
2017-08-09T01:25:30.966Z,98.50
2017-08-09T01:27:57.400Z,98.40
2017-08-09T01:30:23.772Z,98.50
2017-08-09T01:32:50.139Z,98.60
2017-08-09T01:35:16.524Z,98.80
2017-08-09T01:37:43.654Z,98.60
2017-08-09T01:40:10.061Z,98.60
2017-08-09T01:42:36.780Z,98.50
2017-08-09T01:45:03.152Z,98.50
2017-08-09T01:47:29.623Z,98.50
2017-08-09T01:49:57.455Z,98.60
2017-08-09T01:52:24.704Z,98.60
2017-08-09T01:54:51.174Z,98.60
2017-08-09T01:57:17.530Z,98.60
2017-08-09T01:59:44.348Z,98.60
2017-08-09T02:02:11.080Z,98.80
2017-08-09T02:04:38.404Z,98.90
2017-08-09T02:07:04.779Z,98.90
2017-08-09T02:09:31.110Z,98.90
2017-08-09T02:11:57.488Z,98.90
2017-08-09T02:14:23.849Z,98.80
2017-08-09T02:16:50.313Z,98.90
2017-08-09T02:19:16.671Z,98.90
2017-08-09T02:21:43.418Z,99.00
2017-08-09T02:24:09.821Z,99.20
2017-08-09T02:26:36.221Z,99.50
2017-08-09T02:29:02.633Z,99.40
2017-08-09T02:31:29.787Z,99.30
2017-08-09T02:33:56.160Z,99.30
2017-08-09T02:36:22.555Z,99.40
2017-08-09T02:38:48.924Z,99.30
2017-08-09T02:41:15.274Z,99.40
2017-08-09T02:43:41.950Z,99.50
2017-08-09T02:46:09.789Z,99.50
2017-08-09T02:48:36.181Z,99.50
2017-08-09T02:51:02.552Z,99.50
2017-08-09T02:53:33.282Z,99.80
2017-08-09T02:55:59.642Z,99.80
2017-08-09T02:58:26.038Z,99.90
2017-08-09T03:00:52.529Z,99.90
2017-08-09T03:03:18.898Z,99.90
2017-08-09T03:05:45.568Z,99.90
2017-08-09T03:08:11.944Z,99.90
2017-08-09T03:10:38.362Z,99.90
2017-08-09T03:13:04.747Z,99.90
2017-08-09T03:15:31.818Z,99.90
2017-08-09T03:17:58.220Z,99.90
2017-08-09T03:20:25.350Z,99.90
2017-08-09T03:22:52.875Z,99.90
2017-08-09T03:25:19.247Z,99.90
2017-08-09T03:27:45.584Z,99.90
2017-08-09T03:30:12.737Z,99.90
2017-08-09T03:32:39.089Z,99.90
2017-08-09T03:35:05.460Z,99.90
2017-08-09T03:37:31.804Z,99.90
2017-08-09T03:39:58.179Z,99.90
2017-08-09T03:42:24.556Z,99.90
2017-08-09T03:44:51.337Z,99.90
2017-08-09T03:47:17.708Z,99.90
2017-08-09T03:49:44.090Z,99.90
2017-08-09T03:52:11.190Z,99.90
2017-08-09T03:54:37.513Z,99.90
2017-08-09T03:57:03.919Z,99.90
2017-08-09T03:59:30.307Z,99.90
2017-08-09T04:01:56.902Z,99.90
2017-08-09T04:04:23.334Z,99.90
2017-08-09T04:06:49.684Z,99.90
2017-08-09T04:09:16.130Z,99.90
2017-08-09T04:11:42.480Z,99.90
2017-08-09T04:14:08.872Z,99.90
2017-08-09T04:16:35.199Z,99.90
2017-08-09T04:19:01.576Z,99.90
2017-08-09T04:21:27.949Z,99.90
2017-08-09T04:23:54.647Z,99.80
2017-08-09T04:26:21.053Z,99.70
2017-08-09T04:28:47.422Z,99.60
2017-08-09T04:31:13.836Z,99.60
2017-08-09T04:33:40.217Z,99.60
2017-08-09T04:36:06.621Z,99.90
2017-08-09T04:38:32.986Z,99.90
2017-08-09T04:40:59.338Z,99.90
2017-08-09T04:43:26.426Z,99.90
2017-08-09T04:45:53.111Z,99.90
2017-08-09T04:48:19.479Z,99.90
2017-08-09T04:50:45.830Z,99.90
2017-08-09T04:53:12.232Z,99.90
2017-08-09T04:55:38.620Z,99.90
2017-08-09T04:58:04.978Z,99.90
2017-08-09T05:00:32.147Z,99.90
2017-08-09T05:02:58.849Z,99.90
2017-08-09T05:05:25.194Z,99.80
2017-08-09T05:07:51.609Z,99.70
2017-08-09T05:10:17.993Z,99.60
2017-08-09T05:12:44.334Z,99.80
2017-08-09T05:15:10.799Z,99.90
2017-08-09T05:17:37.145Z,99.90
2017-08-09T05:20:04.255Z,99.90
2017-08-09T05:22:30.684Z,99.90
2017-08-09T05:24:57.893Z,99.80
2017-08-09T05:27:24.265Z,99.80
2017-08-09T05:29:50.637Z,99.80
2017-08-09T05:32:17.777Z,99.80
2017-08-09T05:34:44.930Z,99.90
2017-08-09T05:37:12.119Z,99.80
2017-08-09T05:39:38.483Z,99.70
2017-08-09T05:42:04.865Z,99.80
2017-08-09T05:44:31.247Z,99.80
2017-08-09T05:46:57.594Z,99.70
2017-08-09T05:49:24.705Z,99.50
2017-08-09T05:51:51.083Z,99.50
2017-08-09T05:54:17.453Z,99.40
2017-08-09T05:56:43.811Z,99.10
2017-08-09T05:59:10.274Z,99.20
2017-08-09T06:01:36.662Z,99.30
2017-08-09T06:04:03.005Z,99.20
2017-08-09T06:06:30.108Z,99.30
2017-08-09T06:08:56.445Z,99.30
2017-08-09T06:11:23.040Z,99.20
2017-08-09T06:13:50.135Z,99.00
2017-08-09T06:16:16.493Z,99.00
2017-08-09T06:18:42.882Z,99.00
2017-08-09T06:21:09.243Z,98.70
2017-08-09T06:23:35.626Z,98.50
2017-08-09T06:26:01.985Z,98.60
2017-08-09T06:28:28.367Z,98.60
2017-08-09T06:30:54.792Z,98.50
2017-08-09T06:33:21.880Z,98.30
2017-08-09T06:35:48.252Z,98.30
2017-08-09T06:38:14.598Z,98.10
2017-08-09T06:40:41.712Z,97.40
2017-08-09T06:43:08.034Z,97.40
2017-08-09T06:45:34.688Z,97.20
2017-08-09T06:48:01.056Z,96.90
2017-08-09T06:50:27.427Z,96.50
2017-08-09T06:52:55.184Z,96.20
2017-08-09T06:55:21.535Z,96.20
2017-08-09T06:57:47.932Z,96.00
2017-08-09T07:00:14.361Z,95.90
2017-08-09T07:02:40.735Z,95.60
2017-08-09T07:05:07.048Z,95.70
2017-08-09T07:07:33.795Z,95.80
2017-08-09T07:10:00.173Z,95.70
2017-08-09T07:12:26.518Z,96.20
2017-08-09T07:14:52.883Z,96.30
2017-08-09T07:17:19.226Z,96.30
2017-08-09T07:19:45.584Z,96.40
2017-08-09T07:22:11.954Z,96.30
2017-08-09T07:24:38.303Z,96.50
2017-08-09T07:27:04.641Z,96.40
2017-08-09T07:29:31.277Z,96.30
2017-08-09T07:31:57.644Z,96.10
2017-08-09T07:34:31.330Z,95.90
2017-08-09T07:36:58.504Z,95.70
2017-08-09T07:39:24.854Z,95.70
2017-08-09T07:41:51.246Z,95.50
2017-08-09T07:44:17.594Z,95.10
2017-08-09T07:46:43.950Z,94.70
2017-08-09T07:49:10.345Z,94.20
2017-08-09T07:51:36.712Z,93.90
2017-08-09T07:54:03.088Z,93.80
2017-08-09T07:56:30.515Z,94.40
2017-08-09T07:58:56.868Z,94.40
2017-08-09T08:01:23.349Z,94.40
2017-08-09T08:03:49.739Z,93.80
2017-08-09T08:06:16.093Z,93.50
2017-08-09T08:08:42.522Z,93.00
2017-08-09T08:11:08.950Z,92.80
2017-08-09T08:13:35.506Z,92.30
2017-08-09T08:16:01.795Z,92.10
2017-08-09T08:18:28.622Z,92.30
2017-08-09T08:20:54.996Z,92.40
2017-08-09T08:23:21.367Z,92.50
2017-08-09T08:25:47.706Z,92.70
2017-08-09T08:28:14.808Z,93.20
2017-08-09T08:30:41.188Z,92.90
2017-08-09T08:33:09.477Z,91.90
2017-08-09T08:35:36.752Z,92.10
2017-08-09T08:38:03.113Z,91.90
2017-08-09T08:40:29.771Z,91.80
2017-08-09T08:42:56.889Z,91.10
2017-08-09T08:45:23.275Z,91.30
2017-08-09T08:47:49.633Z,91.20
2017-08-09T08:50:15.966Z,91.60
2017-08-09T08:52:42.478Z,92.10
2017-08-09T08:55:08.918Z,91.60
2017-08-09T08:57:35.339Z,91.10
2017-08-09T09:00:01.816Z,90.30
2017-08-09T09:02:28.578Z,89.80
2017-08-09T09:04:54.985Z,89.10
2017-08-09T09:07:22.158Z,89.10
2017-08-09T09:09:48.576Z,89.00
2017-08-09T09:12:14.959Z,89.00
2017-08-09T09:14:41.385Z,87.80
2017-08-09T09:17:07.799Z,87.70
2017-08-09T09:19:34.527Z,87.50
2017-08-09T09:22:01.699Z,88.40
2017-08-09T09:24:28.100Z,88.40
2017-08-09T09:27:01.459Z,87.60
2017-08-09T09:29:27.784Z,87.20
2017-08-09T09:31:54.216Z,88.10
2017-08-09T09:34:20.669Z,89.10
2017-08-09T09:36:47.790Z,88.50
2017-08-09T09:39:14.252Z,88.50
2017-08-09T09:41:42.120Z,88.70
2017-08-09T09:44:09.348Z,86.70
2017-08-09T09:46:35.825Z,86.40
2017-08-09T09:49:02.338Z,84.30
2017-08-09T09:54:28.846Z,84.50
2017-08-09T09:56:55.230Z,85.00
2017-08-09T09:59:22.224Z,86.10
2017-08-09T10:01:48.674Z,84.90
2017-08-09T10:04:15.120Z,84.90
2017-08-09T10:06:41.502Z,84.30
2017-08-09T10:09:08.306Z,83.40
2017-08-09T10:11:34.745Z,82.70
2017-08-09T10:14:01.184Z,81.20
2017-08-09T10:16:27.829Z,80.50
2017-08-09T10:18:54.237Z,79.80
2017-08-09T10:21:20.692Z,78.80
2017-08-09T10:23:47.338Z,78.50
2017-08-09T10:26:14.255Z,79.30
2017-08-09T10:28:40.680Z,79.30
2017-08-09T10:31:07.088Z,76.80
2017-08-09T10:33:33.426Z,77.20
2017-08-09T10:35:59.739Z,76.70
2017-08-09T10:38:26.078Z,75.80
2017-08-09T10:40:52.404Z,74.10
2017-08-09T10:43:19.055Z,72.10
2017-08-09T10:45:46.164Z,71.60
2017-08-09T10:48:12.508Z,71.60
2017-08-09T10:50:38.840Z,71.30
2017-08-09T10:53:05.204Z,70.20
2017-08-09T10:55:31.562Z,69.40
2017-08-09T10:57:57.881Z,68.60
2017-08-09T11:00:24.319Z,70.30
2017-08-09T11:02:50.733Z,70.90
2017-08-09T11:05:17.172Z,71.00
2017-08-09T11:07:43.556Z,69.20
2017-08-09T11:10:10.212Z,68.90
2017-08-09T11:12:36.541Z,67.80
2017-08-09T11:15:02.966Z,67.20
2017-08-09T11:17:30.066Z,64.50
2017-08-09T11:19:56.483Z,64.40
2017-08-09T11:22:22.856Z,64.20
2017-08-09T11:24:49.180Z,63.50
2017-08-09T11:27:15.541Z,61.90
2017-08-09T11:29:41.917Z,64.50
2017-08-09T11:32:08.715Z,65.70
2017-08-09T11:34:35.084Z,65.40
2017-08-09T11:37:01.394Z,62.20
2017-08-09T11:39:27.775Z,60.50
2017-08-09T11:41:54.146Z,59.90
2017-08-09T11:44:20.576Z,59.10
2017-08-09T11:46:46.965Z,59.60
2017-08-09T11:49:13.341Z,61.20
2017-08-09T11:51:39.726Z,61.30
2017-08-09T11:54:06.474Z,62.10
2017-08-09T11:56:33.579Z,62.00
2017-08-09T11:59:00.068Z,62.00
2017-08-09T12:01:27.320Z,62.50
2017-08-09T12:03:53.704Z,62.60
2017-08-09T12:06:20.116Z,62.10
2017-08-09T12:08:46.603Z,61.30
2017-08-09T12:11:13.024Z,61.10
2017-08-09T12:13:39.423Z,60.90
2017-08-09T12:16:06.208Z,60.80
2017-08-09T12:18:32.631Z,61.70
2017-08-09T12:20:59.052Z,62.20
2017-08-09T12:23:25.501Z,61.60
2017-08-09T12:25:51.910Z,62.20
2017-08-09T12:28:18.308Z,62.80
2017-08-09T12:30:45.247Z,62.60
2017-08-09T12:33:19.853Z,62.30
2017-08-09T12:35:46.244Z,63.20
2017-08-09T12:38:12.652Z,63.90
2017-08-09T12:40:39.056Z,64.00
2017-08-09T12:43:05.460Z,64.60
2017-08-09T12:45:32.118Z,64.20
2017-08-09T12:47:58.537Z,64.10
2017-08-09T12:50:25.302Z,63.80
2017-08-09T12:52:52.619Z,62.60
2017-08-09T12:55:19.644Z,61.50
2017-08-09T12:57:46.135Z,60.40
2017-08-09T13:00:12.575Z,60.20
2017-08-09T13:02:38.993Z,58.10
2017-08-09T13:05:13.067Z,57.30
2017-08-09T13:07:39.451Z,57.30
2017-08-09T13:10:06.056Z,57.20
2017-08-09T13:12:32.615Z,56.00
2017-08-09T13:14:59.058Z,56.60
2017-08-09T13:17:25.737Z,55.10
2017-08-09T13:19:52.141Z,54.80
2017-08-09T13:22:18.863Z,53.50
2017-08-09T13:24:46.762Z,52.70
2017-08-09T13:27:16.161Z,52.60
2017-08-09T13:29:42.923Z,53.20
2017-08-09T13:32:09.283Z,53.30
2017-08-09T13:34:35.654Z,53.30
2017-08-09T13:37:02.090Z,53.90
2017-08-09T13:39:29.566Z,54.80
2017-08-09T13:41:56.051Z,54.90
2017-08-09T13:44:22.389Z,53.80
2017-08-09T13:46:48.761Z,52.60
2017-08-09T13:49:15.127Z,52.60
2017-08-09T13:51:41.480Z,52.40
2017-08-09T13:54:07.865Z,50.20
2017-08-09T13:56:34.492Z,49.80
2017-08-09T13:59:00.870Z,49.10
2017-08-09T14:01:27.390Z,49.70
2017-08-09T14:03:53.906Z,48.80
2017-08-09T14:06:20.265Z,49.10
2017-08-09T14:08:46.675Z,48.90
2017-08-09T14:11:13.007Z,49.40
2017-08-09T14:13:39.430Z,50.60
2017-08-09T14:16:05.757Z,49.80
2017-08-09T14:18:32.371Z,48.80
2017-08-09T14:20:58.757Z,48.70
2017-08-09T14:23:25.100Z,48.60
2017-08-09T14:25:52.227Z,48.30
2017-08-09T14:28:18.609Z,48.90
2017-08-09T14:30:44.968Z,49.30
2017-08-09T14:33:11.361Z,50.10
2017-08-09T14:35:38.074Z,50.50
2017-08-09T14:38:04.413Z,50.40
2017-08-09T14:40:31.521Z,50.90
2017-08-09T14:42:57.920Z,50.90
2017-08-09T14:45:24.294Z,51.60
2017-08-09T14:47:50.731Z,52.30
2017-08-09T14:50:17.143Z,53.20
2017-08-09T14:52:43.552Z,54.10
2017-08-09T14:55:09.961Z,54.40
2017-08-09T14:57:36.590Z,54.70
2017-08-09T15:00:03.074Z,55.20
2017-08-09T15:02:29.422Z,55.20
2017-08-09T15:04:55.806Z,55.50
2017-08-09T15:07:22.220Z,55.20
2017-08-09T15:09:48.652Z,55.10
2017-08-09T15:12:15.047Z,54.50
2017-08-09T15:14:41.426Z,54.50
2017-08-09T15:17:07.801Z,54.10
2017-08-09T15:19:34.687Z,53.30
2017-08-09T15:22:01.142Z,52.80
2017-08-09T15:24:27.544Z,53.20
2017-08-09T15:26:54.046Z,53.50
2017-08-09T15:29:20.422Z,53.10
2017-08-09T15:31:46.903Z,53.70
2017-08-09T15:34:13.333Z,54.50
2017-08-09T15:36:40.089Z,55.10
2017-08-09T15:39:07.243Z,55.30
2017-08-09T15:41:33.635Z,55.30
2017-08-09T15:44:00.065Z,54.50
2017-08-09T15:46:26.746Z,54.40
2017-08-09T15:48:53.178Z,53.90
2017-08-09T15:51:19.583Z,53.20
2017-08-09T15:53:46.015Z,53.30
2017-08-09T15:56:12.636Z,52.70
2017-08-09T15:58:39.044Z,53.50
2017-08-09T16:03:41.768Z,53.50
2017-08-09T16:06:08.167Z,53.60
2017-08-09T16:08:34.547Z,53.90
2017-08-09T16:11:00.951Z,54.30
2017-08-09T16:13:27.335Z,54.40
2017-08-09T16:15:53.736Z,54.70
2017-08-09T16:18:21.071Z,56.60
2017-08-09T16:20:47.489Z,56.00
2017-08-09T16:23:13.934Z,56.50
2017-08-09T16:25:40.934Z,56.50
2017-08-09T16:28:07.357Z,57.10
2017-08-09T16:30:33.696Z,56.60
2017-08-09T16:33:00.522Z,56.70
2017-08-09T16:35:27.005Z,57.20
2017-08-09T16:37:53.396Z,58.10
2017-08-09T16:40:19.802Z,59.00
2017-08-09T16:42:46.191Z,60.00
2017-08-09T16:45:12.611Z,60.30
2017-08-09T16:47:38.990Z,60.90
2017-08-09T16:50:05.383Z,61.50
2017-08-09T16:52:32.092Z,62.30
2017-08-09T16:54:58.460Z,63.30
2017-08-09T16:57:24.879Z,64.50
2017-08-09T16:59:51.359Z,65.00
2017-08-09T17:02:17.711Z,65.60
2017-08-09T17:04:44.335Z,66.20
2017-08-09T17:07:10.822Z,66.60
2017-08-09T17:09:37.265Z,67.40
2017-08-09T17:12:03.693Z,67.90
2017-08-09T17:14:30.121Z,68.30
2017-08-09T17:16:56.529Z,69.20
2017-08-09T17:19:23.736Z,69.90
2017-08-09T17:21:50.120Z,70.30
2017-08-09T17:24:16.742Z,70.70
2017-08-09T17:26:43.115Z,71.40
2017-08-09T17:29:10.224Z,73.00
2017-08-09T17:31:36.616Z,72.80
2017-08-09T17:34:02.978Z,73.40
2017-08-09T17:36:29.439Z,73.90
2017-08-09T17:38:55.830Z,74.30
2017-08-09T17:41:22.189Z,74.60
2017-08-09T17:43:48.629Z,75.20
2017-08-09T17:46:15.832Z,76.10
2017-08-09T17:48:42.273Z,76.00
2017-08-09T17:51:09.006Z,76.30
2017-08-09T17:53:35.409Z,76.90
2017-08-09T17:56:02.001Z,77.80
2017-08-09T17:58:29.212Z,79.00
2017-08-09T18:00:55.651Z,78.80
2017-08-09T18:03:22.088Z,79.30
2017-08-09T18:05:48.631Z,79.90
2017-08-09T18:08:15.801Z,80.50
2017-08-09T18:10:42.185Z,80.50
2017-08-09T18:13:08.555Z,81.10
2017-08-09T18:15:35.024Z,81.40
2017-08-09T18:18:01.823Z,81.00
2017-08-09T18:20:28.246Z,81.10
2017-08-09T18:22:54.707Z,81.30
2017-08-09T18:25:21.817Z,82.40
2017-08-09T18:27:49.024Z,83.30
2017-08-09T18:30:15.521Z,82.90
2017-08-09T18:32:42.713Z,83.90
2017-08-09T18:35:09.168Z,83.90
2017-08-09T18:37:35.630Z,84.40
2017-08-09T18:40:02.088Z,84.90
2017-08-09T18:42:29.275Z,85.50
2017-08-09T18:44:55.735Z,85.60
2017-08-09T18:47:22.315Z,85.90
2017-08-09T18:49:48.709Z,85.90
2017-08-09T18:52:15.419Z,86.10
2017-08-09T18:54:41.794Z,86.20
2017-08-09T18:57:09.243Z,86.50
2017-08-09T18:59:35.729Z,86.50
2017-08-09T19:02:02.168Z,86.70
2017-08-09T19:04:28.649Z,87.10
2017-08-09T19:06:55.093Z,87.30
2017-08-09T19:09:22.281Z,87.40
2017-08-09T19:11:48.735Z,87.70
2017-08-09T19:14:15.159Z,87.80
2017-08-09T19:16:41.630Z,87.90
2017-08-09T19:19:08.133Z,88.30
2017-08-09T19:21:34.556Z,89.20
2017-08-09T19:24:00.935Z,89.70
2017-08-09T19:26:27.388Z,90.10
2017-08-09T19:28:54.237Z,90.50
2017-08-09T19:31:20.971Z,90.70
2017-08-09T19:33:47.365Z,90.90
2017-08-09T19:36:14.555Z,93.00
2017-08-09T19:38:41.011Z,93.00
2017-08-09T19:41:07.489Z,94.90
2017-08-09T19:43:33.991Z,95.70
2017-08-09T19:46:01.213Z,96.10
2017-08-09T19:48:27.675Z,96.10
2017-08-09T19:50:54.159Z,96.00
2017-08-09T19:53:20.617Z,96.10
2017-08-09T19:55:47.094Z,96.40
2017-08-09T19:58:14.313Z,96.80
2017-08-09T20:00:40.753Z,96.70
2017-08-09T20:03:07.228Z,96.80
2017-08-09T20:05:33.845Z,97.00
2017-08-09T20:08:00.612Z,97.10
2017-08-09T20:10:27.062Z,97.20
2017-08-09T20:12:53.423Z,97.20
2017-08-09T20:15:20.008Z,97.30
2017-08-09T20:17:46.476Z,97.50
2017-08-09T20:20:13.632Z,97.90
2017-08-09T20:22:40.092Z,97.80
2017-08-09T20:25:08.055Z,98.10
2017-08-09T20:27:38.242Z,98.20
2017-08-09T20:30:04.647Z,98.20
2017-08-09T20:32:31.200Z,98.20
2017-08-09T20:34:57.643Z,98.30
2017-08-09T20:37:25.180Z,98.50
2017-08-09T20:39:51.971Z,98.50
2017-08-09T20:42:18.429Z,98.50
2017-08-09T20:44:44.842Z,98.60
2017-08-09T20:47:11.287Z,98.60
2017-08-09T20:49:37.677Z,98.70
2017-08-09T20:52:04.100Z,98.90
2017-08-09T20:54:30.895Z,99.10
2017-08-09T20:56:57.475Z,99.60
2017-08-09T20:59:30.781Z,99.90
2017-08-09T21:01:58.226Z,99.90
2017-08-09T21:04:25.803Z,99.90
2017-08-09T21:06:52.617Z,99.90
2017-08-09T21:09:19.006Z,99.90
2017-08-09T21:11:45.400Z,99.90
2017-08-09T21:14:12.529Z,99.90
2017-08-09T21:16:38.906Z,99.90
2017-08-09T21:19:05.542Z,99.90
2017-08-09T21:21:31.991Z,99.90
2017-08-09T21:24:02.391Z,99.90
2017-08-09T21:26:28.768Z,99.90
2017-08-09T21:28:55.216Z,99.90
2017-08-09T21:31:22.380Z,99.90
2017-08-09T21:33:50.427Z,99.90
2017-08-09T21:36:17.017Z,99.90
2017-08-09T21:38:43.477Z,99.90
2017-08-09T21:41:09.885Z,99.90
2017-08-09T21:43:36.299Z,99.90
2017-08-09T21:46:02.724Z,99.90
2017-08-09T21:48:29.172Z,99.90
2017-08-09T21:50:55.621Z,99.90
2017-08-09T21:53:22.043Z,99.60
2017-08-09T21:55:48.465Z,99.40
2017-08-09T21:58:14.847Z,99.50
2017-08-09T22:00:41.272Z,99.60
2017-08-09T22:03:07.739Z,99.60
2017-08-09T22:05:34.509Z,99.40
2017-08-09T22:08:00.924Z,99.00
2017-08-09T22:10:27.334Z,98.80
2017-08-09T22:12:53.746Z,98.60
2017-08-09T22:15:20.140Z,98.70
2017-08-09T22:17:46.566Z,98.70
2017-08-09T22:20:13.012Z,98.50
2017-08-09T22:22:39.681Z,98.20
2017-08-09T22:25:06.886Z,98.30
2017-08-09T22:27:33.290Z,98.20
2017-08-09T22:29:59.647Z,98.40
2017-08-09T22:32:26.451Z,98.50
2017-08-09T22:34:52.875Z,98.60
2017-08-09T22:37:20.031Z,98.10
2017-08-09T22:39:47.140Z,98.20
2017-08-09T22:42:13.508Z,98.20
2017-08-09T22:44:39.860Z,98.50
2017-08-09T22:47:06.200Z,98.70
2017-08-09T22:49:32.558Z,99.10
2017-08-09T22:51:58.918Z,99.50
2017-08-09T22:54:26.382Z,99.70
2017-08-09T22:56:53.473Z,99.70
2017-08-09T22:59:19.836Z,99.70
2017-08-09T23:01:46.995Z,99.80
2017-08-09T23:04:14.474Z,99.70
2017-08-09T23:06:41.098Z,99.90
2017-08-09T23:09:08.185Z,99.90
2017-08-09T23:11:34.521Z,99.90
2017-08-09T23:14:00.891Z,99.90
2017-08-09T23:16:28.014Z,99.90
2017-08-09T23:18:54.342Z,99.90
2017-08-09T23:21:21.013Z,99.90
2017-08-09T23:23:48.114Z,99.90
2017-08-09T23:26:14.469Z,99.90
2017-08-09T23:28:41.681Z,99.90
2017-08-09T23:31:07.986Z,99.90
2017-08-09T23:33:34.410Z,99.90
2017-08-09T23:36:00.847Z,99.90
2017-08-09T23:38:27.197Z,99.90
2017-08-09T23:40:53.567Z,99.90
2017-08-09T23:43:19.922Z,99.90
2017-08-09T23:45:46.276Z,99.90
2017-08-09T23:48:12.649Z,99.90
2017-08-09T23:50:39.046Z,99.90
2017-08-09T23:53:05.661Z,99.90
2017-08-09T23:55:32.052Z,99.90
2017-08-09T23:57:58.426Z,99.90
